sensor_id;sensor_type;location;lat;lon;timestamp;P1;durP1;ratioP1;P2;durP2;ratioP2
22223;SDS011;11281;52.194;21.006;2022-10-30T00:00:25;2.42;;;2.33;;
22223;SDS011;11281;52.194;21.006;2022-10-30T00:04:27;4.22;;;1.38;;
22223;SDS011;11281;52.194;21.006;2022-10-30T00:08:29;1.77;;;1.48;;
22223;SDS011;11281;52.194;21.006;2022-10-30T00:12:32;3.20;;;2.22;;
22223;SDS011;11281;52.194;21.006;2022-10-30T00:16:34;0.90;;;0.90;;
22223;SDS011;11281;52.194;21.006;2022-10-30T00:20:36;2.28;;;2.08;;
22223;SDS011;11281;52.194;21.006;2022-10-30T00:24:38;4.78;;;3.75;;
22223;SDS011;11281;52.194;21.006;2022-10-30T00:28:40;1.40;;;1.15;;
22223;SDS011;11281;52.194;21.006;2022-10-30T00:32:43;2.17;;;1.70;;
22223;SDS011;11281;52.194;21.006;2022-10-30T00:36:45;1.77;;;1.67;;
22223;SDS011;11281;52.194;21.006;2022-10-30T00:40:47;3.45;;;2.00;;
22223;SDS011;11281;52.194;21.006;2022-10-30T00:44:50;2.92;;;2.05;;
22223;SDS011;11281;52.194;21.006;2022-10-30T00:49:11;2.53;;;2.42;;
22223;SDS011;11281;52.194;21.006;2022-10-30T00:53:17;3.05;;;1.83;;
22223;SDS011;11281;52.194;21.006;2022-10-30T00:57:20;2.13;;;1.58;;
22223;SDS011;11281;52.194;21.006;2022-10-30T01:01:23;1.65;;;1.60;;
22223;SDS011;11281;52.194;21.006;2022-10-30T01:05:28;1.17;;;1.17;;
22223;SDS011;11281;52.194;21.006;2022-10-30T01:09:32;3.08;;;2.85;;
22223;SDS011;11281;52.194;21.006;2022-10-30T01:13:35;1.92;;;1.83;;
22223;SDS011;11281;52.194;21.006;2022-10-30T01:17:45;2.80;;;2.20;;
22223;SDS011;11281;52.194;21.006;2022-10-30T01:35:02;1.77;;;1.67;;
22223;SDS011;11281;52.194;21.006;2022-10-30T01:39:32;2.10;;;1.48;;
22223;SDS011;11281;52.194;21.006;2022-10-30T01:43:37;3.83;;;1.75;;
22223;SDS011;11281;52.194;21.006;2022-10-30T01:52:17;1.55;;;1.48;;
22223;SDS011;11281;52.194;21.006;2022-10-30T01:56:37;1.10;;;1.10;;
22223;SDS011;11281;52.194;21.006;2022-10-30T02:00:59;1.95;;;1.77;;
22223;SDS011;11281;52.194;21.006;2022-10-30T02:05:02;2.15;;;2.00;;
22223;SDS011;11281;52.194;21.006;2022-10-30T02:09:05;2.92;;;2.72;;
22223;SDS011;11281;52.194;21.006;2022-10-30T02:13:09;5.35;;;2.70;;
22223;SDS011;11281;52.194;21.006;2022-10-30T02:17:10;1.27;;;1.17;;
22223;SDS011;11281;52.194;21.006;2022-10-30T02:21:14;1.60;;;1.60;;
22223;SDS011;11281;52.194;21.006;2022-10-30T02:25:16;1.02;;;1.02;;
22223;SDS011;11281;52.194;21.006;2022-10-30T02:29:18;2.22;;;1.40;;
22223;SDS011;11281;52.194;21.006;2022-10-30T02:33:22;2.00;;;1.90;;
22223;SDS011;11281;52.194;21.006;2022-10-30T02:37:24;2.00;;;1.83;;
22223;SDS011;11281;52.194;21.006;2022-10-30T02:41:26;1.90;;;1.80;;
22223;SDS011;11281;52.194;21.006;2022-10-30T02:45:28;3.83;;;2.17;;
22223;SDS011;11281;52.194;21.006;2022-10-30T02:49:30;1.67;;;1.58;;
22223;SDS011;11281;52.194;21.006;2022-10-30T02:53:32;1.75;;;1.65;;
22223;SDS011;11281;52.194;21.006;2022-10-30T02:57:34;2.40;;;1.98;;
22223;SDS011;11281;52.194;21.006;2022-10-30T03:01:36;1.48;;;1.45;;
22223;SDS011;11281;52.194;21.006;2022-10-30T03:05:39;1.58;;;1.20;;
22223;SDS011;11281;52.194;21.006;2022-10-30T03:09:41;1.55;;;1.50;;
22223;SDS011;11281;52.194;21.006;2022-10-30T03:13:43;3.30;;;1.73;;
22223;SDS011;11281;52.194;21.006;2022-10-30T03:17:46;1.52;;;1.13;;
22223;SDS011;11281;52.194;21.006;2022-10-30T03:21:49;3.55;;;1.48;;
22223;SDS011;11281;52.194;21.006;2022-10-30T03:25:54;1.83;;;1.70;;
22223;SDS011;11281;52.194;21.006;2022-10-30T03:29:59;1.33;;;1.23;;
22223;SDS011;11281;52.194;21.006;2022-10-30T03:34:01;2.97;;;1.92;;
22223;SDS011;11281;52.194;21.006;2022-10-30T03:38:03;1.80;;;1.70;;
22223;SDS011;11281;52.194;21.006;2022-10-30T03:42:05;3.00;;;2.53;;
22223;SDS011;11281;52.194;21.006;2022-10-30T03:46:07;1.30;;;1.20;;
22223;SDS011;11281;52.194;21.006;2022-10-30T03:50:09;2.90;;;2.65;;
22223;SDS011;11281;52.194;21.006;2022-10-30T03:54:11;2.70;;;1.38;;
22223;SDS011;11281;52.194;21.006;2022-10-30T03:58:12;3.03;;;2.83;;
22223;SDS011;11281;52.194;21.006;2022-10-30T04:02:14;2.25;;;2.05;;
22223;SDS011;11281;52.194;21.006;2022-10-30T04:06:25;2.25;;;1.80;;
22223;SDS011;11281;52.194;21.006;2022-10-30T04:10:27;1.58;;;1.50;;
22223;SDS011;11281;52.194;21.006;2022-10-30T04:14:29;2.45;;;2.28;;
22223;SDS011;11281;52.194;21.006;2022-10-30T04:18:30;1.48;;;1.38;;
22223;SDS011;11281;52.194;21.006;2022-10-30T04:22:32;2.22;;;1.35;;
22223;SDS011;11281;52.194;21.006;2022-10-30T04:26:35;2.72;;;2.50;;
22223;SDS011;11281;52.194;21.006;2022-10-30T04:30:36;2.35;;;2.05;;
22223;SDS011;11281;52.194;21.006;2022-10-30T04:34:39;2.10;;;2.00;;
22223;SDS011;11281;52.194;21.006;2022-10-30T04:38:40;3.13;;;2.53;;
22223;SDS011;11281;52.194;21.006;2022-10-30T04:42:45;1.50;;;1.40;;
22223;SDS011;11281;52.194;21.006;2022-10-30T04:46:47;3.10;;;2.90;;
22223;SDS011;11281;52.194;21.006;2022-10-30T04:50:49;1.35;;;1.35;;
22223;SDS011;11281;52.194;21.006;2022-10-30T04:54:51;2.75;;;1.63;;
22223;SDS011;11281;52.194;21.006;2022-10-30T04:58:53;2.58;;;1.85;;
22223;SDS011;11281;52.194;21.006;2022-10-30T05:02:56;1.83;;;1.73;;
22223;SDS011;11281;52.194;21.006;2022-10-30T05:07:00;2.03;;;1.92;;
22223;SDS011;11281;52.194;21.006;2022-10-30T05:11:04;2.38;;;1.63;;
22223;SDS011;11281;52.194;21.006;2022-10-30T05:15:06;3.42;;;1.27;;
22223;SDS011;11281;52.194;21.006;2022-10-30T05:19:08;2.40;;;2.22;;
22223;SDS011;11281;52.194;21.006;2022-10-30T05:23:09;2.63;;;2.50;;
22223;SDS011;11281;52.194;21.006;2022-10-30T05:27:11;2.17;;;1.85;;
22223;SDS011;11281;52.194;21.006;2022-10-30T05:31:14;2.70;;;1.48;;
22223;SDS011;11281;52.194;21.006;2022-10-30T05:35:15;3.78;;;1.52;;
22223;SDS011;11281;52.194;21.006;2022-10-30T05:39:17;3.45;;;2.70;;
22223;SDS011;11281;52.194;21.006;2022-10-30T05:43:18;3.47;;;3.17;;
22223;SDS011;11281;52.194;21.006;2022-10-30T05:47:21;2.10;;;1.98;;
22223;SDS011;11281;52.194;21.006;2022-10-30T05:51:22;1.65;;;1.58;;
22223;SDS011;11281;52.194;21.006;2022-10-30T05:55:24;2.22;;;1.90;;
22223;SDS011;11281;52.194;21.006;2022-10-30T05:59:25;3.42;;;3.13;;
22223;SDS011;11281;52.194;21.006;2022-10-30T06:03:27;1.52;;;1.52;;
22223;SDS011;11281;52.194;21.006;2022-10-30T06:07:28;3.20;;;2.25;;
22223;SDS011;11281;52.194;21.006;2022-10-30T06:11:30;3.13;;;1.95;;
22223;SDS011;11281;52.194;21.006;2022-10-30T06:15:32;5.53;;;4.18;;
22223;SDS011;11281;52.194;21.006;2022-10-30T06:19:34;2.35;;;2.15;;
22223;SDS011;11281;52.194;21.006;2022-10-30T06:23:36;2.25;;;2.10;;
22223;SDS011;11281;52.194;21.006;2022-10-30T06:27:38;3.17;;;2.90;;
22223;SDS011;11281;52.194;21.006;2022-10-30T06:31:40;1.50;;;1.42;;
22223;SDS011;11281;52.194;21.006;2022-10-30T06:35:42;2.05;;;1.90;;
22223;SDS011;11281;52.194;21.006;2022-10-30T06:39:44;2.28;;;2.17;;
22223;SDS011;11281;52.194;21.006;2022-10-30T06:43:46;5.20;;;1.90;;
22223;SDS011;11281;52.194;21.006;2022-10-30T06:47:48;1.90;;;1.73;;
22223;SDS011;11281;52.194;21.006;2022-10-30T06:52:03;3.63;;;2.80;;
22223;SDS011;11281;52.194;21.006;2022-10-30T06:56:05;4.60;;;2.35;;
22223;SDS011;11281;52.194;21.006;2022-10-30T07:00:08;5.28;;;2.53;;
22223;SDS011;11281;52.194;21.006;2022-10-30T07:04:11;3.70;;;3.15;;
22223;SDS011;11281;52.194;21.006;2022-10-30T07:08:12;2.47;;;1.45;;
22223;SDS011;11281;52.194;21.006;2022-10-30T07:12:14;4.65;;;2.63;;
22223;SDS011;11281;52.194;21.006;2022-10-30T07:16:16;8.48;;;3.03;;
22223;SDS011;11281;52.194;21.006;2022-10-30T07:20:18;2.22;;;2.05;;
22223;SDS011;11281;52.194;21.006;2022-10-30T07:24:20;3.28;;;2.75;;
22223;SDS011;11281;52.194;21.006;2022-10-30T07:28:22;4.60;;;2.53;;
22223;SDS011;11281;52.194;21.006;2022-10-30T07:32:23;3.20;;;2.58;;
22223;SDS011;11281;52.194;21.006;2022-10-30T07:36:25;3.05;;;2.75;;
22223;SDS011;11281;52.194;21.006;2022-10-30T07:40:26;2.22;;;2.13;;
22223;SDS011;11281;52.194;21.006;2022-10-30T07:44:27;2.92;;;2.22;;
22223;SDS011;11281;52.194;21.006;2022-10-30T07:48:30;2.13;;;2.03;;
22223;SDS011;11281;52.194;21.006;2022-10-30T07:52:31;6.07;;;2.90;;
22223;SDS011;11281;52.194;21.006;2022-10-30T07:56:34;6.15;;;3.03;;
22223;SDS011;11281;52.194;21.006;2022-10-30T08:00:35;3.25;;;2.22;;
22223;SDS011;11281;52.194;21.006;2022-10-30T08:04:37;5.45;;;4.03;;
22223;SDS011;11281;52.194;21.006;2022-10-30T08:08:38;1.90;;;1.73;;
22223;SDS011;11281;52.194;21.006;2022-10-30T08:12:40;2.97;;;2.72;;
22223;SDS011;11281;52.194;21.006;2022-10-30T08:16:44;3.45;;;2.33;;
22223;SDS011;11281;52.194;21.006;2022-10-30T08:20:49;1.95;;;1.83;;
22223;SDS011;11281;52.194;21.006;2022-10-30T08:24:50;2.42;;;1.63;;
22223;SDS011;11281;52.194;21.006;2022-10-30T08:28:52;2.42;;;1.90;;
22223;SDS011;11281;52.194;21.006;2022-10-30T08:32:57;6.72;;;2.33;;
22223;SDS011;11281;52.194;21.006;2022-10-30T08:37:00;2.00;;;1.90;;
22223;SDS011;11281;52.194;21.006;2022-10-30T08:41:02;1.60;;;1.52;;
22223;SDS011;11281;52.194;21.006;2022-10-30T08:45:05;6.22;;;2.05;;
22223;SDS011;11281;52.194;21.006;2022-10-30T08:49:08;2.00;;;1.80;;
22223;SDS011;11281;52.194;21.006;2022-10-30T08:53:10;2.10;;;1.60;;
22223;SDS011;11281;52.194;21.006;2022-10-30T08:57:13;2.25;;;1.75;;
22223;SDS011;11281;52.194;21.006;2022-10-30T09:01:15;2.05;;;1.55;;
22223;SDS011;11281;52.194;21.006;2022-10-30T09:05:17;2.00;;;1.73;;
22223;SDS011;11281;52.194;21.006;2022-10-30T09:09:19;3.13;;;2.83;;
22223;SDS011;11281;52.194;21.006;2022-10-30T09:13:21;1.15;;;0.90;;
22223;SDS011;11281;52.194;21.006;2022-10-30T09:17:23;2.60;;;2.40;;
22223;SDS011;11281;52.194;21.006;2022-10-30T09:21:25;3.08;;;1.80;;
22223;SDS011;11281;52.194;21.006;2022-10-30T09:25:27;1.92;;;1.55;;
22223;SDS011;11281;52.194;21.006;2022-10-30T09:29:28;4.05;;;1.55;;
22223;SDS011;11281;52.194;21.006;2022-10-30T09:33:31;1.60;;;1.17;;
22223;SDS011;11281;52.194;21.006;2022-10-30T09:37:33;1.23;;;1.13;;
22223;SDS011;11281;52.194;21.006;2022-10-30T09:51:04;2.50;;;1.25;;
22223;SDS011;11281;52.194;21.006;2022-10-30T10:12:43;5.78;;;2.85;;
22223;SDS011;11281;52.194;21.006;2022-10-30T10:16:50;3.33;;;2.80;;
22223;SDS011;11281;52.194;21.006;2022-10-30T10:20:54;7.00;;;3.35;;
22223;SDS011;11281;52.194;21.006;2022-10-30T10:25:02;7.32;;;3.28;;
22223;SDS011;11281;52.194;21.006;2022-10-30T10:33:41;5.82;;;3.25;;
22223;SDS011;11281;52.194;21.006;2022-10-30T10:46:47;8.05;;;3.53;;
22223;SDS011;11281;52.194;21.006;2022-10-30T10:51:00;12.90;;;3.50;;
22223;SDS011;11281;52.194;21.006;2022-10-30T10:55:23;4.78;;;2.90;;
22223;SDS011;11281;52.194;21.006;2022-10-30T10:59:37;5.88;;;2.15;;
22223;SDS011;11281;52.194;21.006;2022-10-30T11:08:47;1.65;;;1.30;;
22223;SDS011;11281;52.194;21.006;2022-10-30T11:12:50;3.83;;;1.75;;
22223;SDS011;11281;52.194;21.006;2022-10-30T11:21:37;2.08;;;1.42;;
22223;SDS011;11281;52.194;21.006;2022-10-30T11:25:43;2.87;;;1.97;;
22223;SDS011;11281;52.194;21.006;2022-10-30T11:29:50;5.28;;;1.83;;
22223;SDS011;11281;52.194;21.006;2022-10-30T11:33:56;5.53;;;2.13;;
22223;SDS011;11281;52.194;21.006;2022-10-30T11:38:19;3.75;;;1.65;;
22223;SDS011;11281;52.194;21.006;2022-10-30T11:42:20;6.18;;;1.52;;
22223;SDS011;11281;52.194;21.006;2022-10-30T11:46:22;3.03;;;1.33;;
22223;SDS011;11281;52.194;21.006;2022-10-30T11:50:30;2.85;;;1.70;;
22223;SDS011;11281;52.194;21.006;2022-10-30T11:54:36;1.85;;;1.63;;
22223;SDS011;11281;52.194;21.006;2022-10-30T11:58:46;1.23;;;1.10;;
22223;SDS011;11281;52.194;21.006;2022-10-30T12:02:58;1.67;;;1.30;;
22223;SDS011;11281;52.194;21.006;2022-10-30T12:11:24;1.67;;;1.30;;
22223;SDS011;11281;52.194;21.006;2022-10-30T12:15:34;2.40;;;1.65;;
22223;SDS011;11281;52.194;21.006;2022-10-30T12:19:37;2.28;;;1.55;;
22223;SDS011;11281;52.194;21.006;2022-10-30T12:23:38;2.08;;;1.58;;
22223;SDS011;11281;52.194;21.006;2022-10-30T12:27:42;12.65;;;2.42;;
22223;SDS011;11281;52.194;21.006;2022-10-30T12:31:45;5.28;;;1.65;;
22223;SDS011;11281;52.194;21.006;2022-10-30T12:35:55;4.45;;;2.10;;
22223;SDS011;11281;52.194;21.006;2022-10-30T12:40:19;3.88;;;2.28;;
22223;SDS011;11281;52.194;21.006;2022-10-30T12:44:34;4.05;;;1.63;;
22223;SDS011;11281;52.194;21.006;2022-10-30T12:48:45;7.40;;;2.38;;
22223;SDS011;11281;52.194;21.006;2022-10-30T12:57:10;6.93;;;4.30;;
22223;SDS011;11281;52.194;21.006;2022-10-30T13:05:50;90.88;;;36.38;;
22223;SDS011;11281;52.194;21.006;2022-10-30T13:14:18;101.50;;;40.80;;
22223;SDS011;11281;52.194;21.006;2022-10-30T13:18:24;7.15;;;4.78;;
22223;SDS011;11281;52.194;21.006;2022-10-30T13:22:35;4.20;;;2.72;;
22223;SDS011;11281;52.194;21.006;2022-10-30T13:27:00;5.10;;;2.60;;
22223;SDS011;11281;52.194;21.006;2022-10-30T13:31:46;5.47;;;3.70;;
22223;SDS011;11281;52.194;21.006;2022-10-30T13:35:55;4.47;;;3.30;;
22223;SDS011;11281;52.194;21.006;2022-10-30T13:49:02;6.40;;;3.97;;
22223;SDS011;11281;52.194;21.006;2022-10-30T13:53:17;8.75;;;4.93;;
22223;SDS011;11281;52.194;21.006;2022-10-30T14:01:51;8.43;;;3.90;;
22223;SDS011;11281;52.194;21.006;2022-10-30T14:10:21;5.13;;;3.67;;
22223;SDS011;11281;52.194;21.006;2022-10-30T14:14:43;5.72;;;3.55;;
22223;SDS011;11281;52.194;21.006;2022-10-30T14:23:19;7.33;;;4.27;;
22223;SDS011;11281;52.194;21.006;2022-10-30T14:27:28;7.57;;;4.07;;
22223;SDS011;11281;52.194;21.006;2022-10-30T14:31:33;5.18;;;3.70;;
22223;SDS011;11281;52.194;21.006;2022-10-30T14:35:37;8.35;;;4.32;;
22223;SDS011;11281;52.194;21.006;2022-10-30T14:39:40;6.78;;;4.00;;
22223;SDS011;11281;52.194;21.006;2022-10-30T14:43:49;7.43;;;4.72;;
22223;SDS011;11281;52.194;21.006;2022-10-30T14:48:23;6.78;;;4.28;;
22223;SDS011;11281;52.194;21.006;2022-10-30T14:52:51;5.28;;;3.45;;
22223;SDS011;11281;52.194;21.006;2022-10-30T14:57:42;7.28;;;3.78;;
22223;SDS011;11281;52.194;21.006;2022-10-30T15:02:02;9.13;;;4.00;;
22223;SDS011;11281;52.194;21.006;2022-10-30T15:06:20;10.85;;;5.30;;
22223;SDS011;11281;52.194;21.006;2022-10-30T15:10:31;11.93;;;5.60;;
22223;SDS011;11281;52.194;21.006;2022-10-30T15:14:40;10.25;;;5.88;;
22223;SDS011;11281;52.194;21.006;2022-10-30T15:18:46;8.27;;;4.95;;
22223;SDS011;11281;52.194;21.006;2022-10-30T15:23:17;26.27;;;12.77;;
22223;SDS011;11281;52.194;21.006;2022-10-30T15:27:28;269.40;;;95.07;;
22223;SDS011;11281;52.194;21.006;2022-10-30T15:31:33;313.33;;;108.43;;
22223;SDS011;11281;52.194;21.006;2022-10-30T15:35:35;348.17;;;128.30;;
22223;SDS011;11281;52.194;21.006;2022-10-30T15:39:36;188.95;;;74.25;;
22223;SDS011;11281;52.194;21.006;2022-10-30T15:43:39;45.42;;;22.92;;
22223;SDS011;11281;52.194;21.006;2022-10-30T15:47:46;19.50;;;9.63;;
22223;SDS011;11281;52.194;21.006;2022-10-30T15:51:58;8.90;;;5.28;;
22223;SDS011;11281;52.194;21.006;2022-10-30T16:00:36;7.88;;;5.85;;
22223;SDS011;11281;52.194;21.006;2022-10-30T16:04:39;7.90;;;5.38;;
22223;SDS011;11281;52.194;21.006;2022-10-30T16:08:41;9.98;;;6.25;;
22223;SDS011;11281;52.194;21.006;2022-10-30T16:12:47;10.27;;;6.80;;
22223;SDS011;11281;52.194;21.006;2022-10-30T16:16:49;16.05;;;8.85;;
22223;SDS011;11281;52.194;21.006;2022-10-30T16:20:52;17.98;;;9.55;;
22223;SDS011;11281;52.194;21.006;2022-10-30T16:24:57;16.02;;;8.65;;
22223;SDS011;11281;52.194;21.006;2022-10-30T16:29:22;14.00;;;8.40;;
22223;SDS011;11281;52.194;21.006;2022-10-30T16:33:27;16.20;;;8.80;;
22223;SDS011;11281;52.194;21.006;2022-10-30T16:37:34;14.63;;;9.50;;
22223;SDS011;11281;52.194;21.006;2022-10-30T16:41:39;18.45;;;9.20;;
22223;SDS011;11281;52.194;21.006;2022-10-30T16:45:46;15.38;;;8.32;;
22223;SDS011;11281;52.194;21.006;2022-10-30T16:49:53;15.15;;;7.88;;
22223;SDS011;11281;52.194;21.006;2022-10-30T16:53:57;13.77;;;8.90;;
22223;SDS011;11281;52.194;21.006;2022-10-30T16:57:59;15.43;;;8.85;;
22223;SDS011;11281;52.194;21.006;2022-10-30T17:02:01;16.13;;;9.13;;
22223;SDS011;11281;52.194;21.006;2022-10-30T17:10:58;16.35;;;8.80;;
22223;SDS011;11281;52.194;21.006;2022-10-30T17:15:10;14.02;;;9.07;;
22223;SDS011;11281;52.194;21.006;2022-10-30T17:23:32;25.52;;;11.10;;
22223;SDS011;11281;52.194;21.006;2022-10-30T17:27:38;20.40;;;10.98;;
22223;SDS011;11281;52.194;21.006;2022-10-30T17:31:47;18.77;;;11.45;;
22223;SDS011;11281;52.194;21.006;2022-10-30T17:35:50;19.27;;;10.80;;
22223;SDS011;11281;52.194;21.006;2022-10-30T17:39:52;24.23;;;13.52;;
22223;SDS011;11281;52.194;21.006;2022-10-30T17:43:54;19.33;;;11.00;;
22223;SDS011;11281;52.194;21.006;2022-10-30T17:47:56;20.17;;;11.48;;
22223;SDS011;11281;52.194;21.006;2022-10-30T17:51:58;18.83;;;11.00;;
22223;SDS011;11281;52.194;21.006;2022-10-30T17:56:01;18.00;;;10.35;;
22223;SDS011;11281;52.194;21.006;2022-10-30T18:00:07;18.23;;;11.32;;
22223;SDS011;11281;52.194;21.006;2022-10-30T18:04:15;20.13;;;11.68;;
22223;SDS011;11281;52.194;21.006;2022-10-30T18:08:39;19.45;;;12.02;;
22223;SDS011;11281;52.194;21.006;2022-10-30T18:12:41;19.75;;;12.48;;
22223;SDS011;11281;52.194;21.006;2022-10-30T18:16:42;25.70;;;13.30;;
22223;SDS011;11281;52.194;21.006;2022-10-30T18:20:44;23.30;;;12.45;;
22223;SDS011;11281;52.194;21.006;2022-10-30T18:24:46;32.20;;;16.23;;
22223;SDS011;11281;52.194;21.006;2022-10-30T18:28:48;34.15;;;15.68;;
22223;SDS011;11281;52.194;21.006;2022-10-30T18:32:50;32.22;;;14.25;;
22223;SDS011;11281;52.194;21.006;2022-10-30T18:36:51;23.85;;;13.05;;
22223;SDS011;11281;52.194;21.006;2022-10-30T18:40:54;23.65;;;12.25;;
22223;SDS011;11281;52.194;21.006;2022-10-30T18:44:56;22.38;;;11.88;;
22223;SDS011;11281;52.194;21.006;2022-10-30T18:48:57;19.65;;;10.68;;
22223;SDS011;11281;52.194;21.006;2022-10-30T18:52:59;20.35;;;11.80;;
22223;SDS011;11281;52.194;21.006;2022-10-30T18:57:02;19.92;;;11.80;;
22223;SDS011;11281;52.194;21.006;2022-10-30T19:01:04;29.08;;;14.50;;
22223;SDS011;11281;52.194;21.006;2022-10-30T19:09:31;22.75;;;12.77;;
22223;SDS011;11281;52.194;21.006;2022-10-30T19:13:33;24.73;;;13.60;;
22223;SDS011;11281;52.194;21.006;2022-10-30T19:17:35;24.45;;;13.35;;
22223;SDS011;11281;52.194;21.006;2022-10-30T19:21:37;31.08;;;15.27;;
22223;SDS011;11281;52.194;21.006;2022-10-30T19:25:39;24.25;;;13.68;;
22223;SDS011;11281;52.194;21.006;2022-10-30T19:29:43;26.98;;;13.85;;
22223;SDS011;11281;52.194;21.006;2022-10-30T19:33:45;28.55;;;14.50;;
22223;SDS011;11281;52.194;21.006;2022-10-30T19:37:47;29.10;;;14.82;;
22223;SDS011;11281;52.194;21.006;2022-10-30T19:41:49;27.17;;;14.00;;
22223;SDS011;11281;52.194;21.006;2022-10-30T19:45:54;23.30;;;13.82;;
22223;SDS011;11281;52.194;21.006;2022-10-30T19:49:59;23.48;;;14.60;;
22223;SDS011;11281;52.194;21.006;2022-10-30T19:54:01;23.17;;;13.93;;
22223;SDS011;11281;52.194;21.006;2022-10-30T19:58:03;22.80;;;12.85;;
22223;SDS011;11281;52.194;21.006;2022-10-30T20:02:07;23.83;;;13.88;;
22223;SDS011;11281;52.194;21.006;2022-10-30T20:06:11;20.73;;;12.90;;
22223;SDS011;11281;52.194;21.006;2022-10-30T20:10:17;24.38;;;13.77;;
22223;SDS011;11281;52.194;21.006;2022-10-30T20:14:20;26.95;;;15.10;;
22223;SDS011;11281;52.194;21.006;2022-10-30T20:18:23;29.30;;;16.60;;
22223;SDS011;11281;52.194;21.006;2022-10-30T20:22:30;28.63;;;16.20;;
22223;SDS011;11281;52.194;21.006;2022-10-30T20:26:32;32.80;;;16.75;;
22223;SDS011;11281;52.194;21.006;2022-10-30T20:30:34;33.05;;;17.55;;
22223;SDS011;11281;52.194;21.006;2022-10-30T20:34:36;37.50;;;18.65;;
22223;SDS011;11281;52.194;21.006;2022-10-30T20:38:38;38.85;;;18.50;;
22223;SDS011;11281;52.194;21.006;2022-10-30T20:42:40;32.10;;;17.45;;
22223;SDS011;11281;52.194;21.006;2022-10-30T20:46:44;27.38;;;16.60;;
22223;SDS011;11281;52.194;21.006;2022-10-30T20:50:46;30.05;;;16.17;;
22223;SDS011;11281;52.194;21.006;2022-10-30T20:54:48;26.30;;;14.55;;
22223;SDS011;11281;52.194;21.006;2022-10-30T20:58:49;24.98;;;14.35;;
22223;SDS011;11281;52.194;21.006;2022-10-30T21:02:53;28.13;;;14.82;;
22223;SDS011;11281;52.194;21.006;2022-10-30T21:06:54;30.67;;;15.68;;
22223;SDS011;11281;52.194;21.006;2022-10-30T21:10:59;28.20;;;16.55;;
22223;SDS011;11281;52.194;21.006;2022-10-30T21:15:03;32.90;;;19.10;;
22223;SDS011;11281;52.194;21.006;2022-10-30T21:19:05;39.75;;;19.52;;
22223;SDS011;11281;52.194;21.006;2022-10-30T21:23:07;36.05;;;17.75;;
22223;SDS011;11281;52.194;21.006;2022-10-30T21:27:09;32.63;;;17.27;;
22223;SDS011;11281;52.194;21.006;2022-10-30T21:31:11;31.45;;;18.13;;
22223;SDS011;11281;52.194;21.006;2022-10-30T21:35:13;29.50;;;17.33;;
22223;SDS011;11281;52.194;21.006;2022-10-30T21:39:15;28.05;;;15.40;;
22223;SDS011;11281;52.194;21.006;2022-10-30T21:43:17;32.28;;;16.92;;
22223;SDS011;11281;52.194;21.006;2022-10-30T21:47:19;28.05;;;17.10;;
22223;SDS011;11281;52.194;21.006;2022-10-30T21:51:21;31.63;;;16.15;;
22223;SDS011;11281;52.194;21.006;2022-10-30T21:55:25;26.05;;;17.35;;
22223;SDS011;11281;52.194;21.006;2022-10-30T21:59:27;28.13;;;16.00;;
22223;SDS011;11281;52.194;21.006;2022-10-30T22:03:28;33.80;;;16.08;;
22223;SDS011;11281;52.194;21.006;2022-10-30T22:07:34;28.67;;;15.60;;
22223;SDS011;11281;52.194;21.006;2022-10-30T22:11:37;29.25;;;15.50;;
22223;SDS011;11281;52.194;21.006;2022-10-30T22:15:38;26.63;;;15.23;;
22223;SDS011;11281;52.194;21.006;2022-10-30T22:19:40;31.52;;;16.85;;
22223;SDS011;11281;52.194;21.006;2022-10-30T22:23:42;28.30;;;14.68;;
22223;SDS011;11281;52.194;21.006;2022-10-30T22:27:46;25.50;;;13.45;;
22223;SDS011;11281;52.194;21.006;2022-10-30T22:31:49;22.10;;;13.07;;
22223;SDS011;11281;52.194;21.006;2022-10-30T22:35:51;28.52;;;14.23;;
22223;SDS011;11281;52.194;21.006;2022-10-30T22:39:52;30.40;;;14.68;;
22223;SDS011;11281;52.194;21.006;2022-10-30T22:43:54;24.90;;;14.65;;
22223;SDS011;11281;52.194;21.006;2022-10-30T22:47:56;22.60;;;13.52;;
22223;SDS011;11281;52.194;21.006;2022-10-30T22:51:57;23.30;;;13.98;;
22223;SDS011;11281;52.194;21.006;2022-10-30T22:55:59;26.20;;;13.98;;
22223;SDS011;11281;52.194;21.006;2022-10-30T23:04:24;28.45;;;15.23;;
22223;SDS011;11281;52.194;21.006;2022-10-30T23:08:26;31.83;;;16.23;;
22223;SDS011;11281;52.194;21.006;2022-10-30T23:12:27;26.35;;;14.02;;
22223;SDS011;11281;52.194;21.006;2022-10-30T23:16:29;27.75;;;13.05;;
22223;SDS011;11281;52.194;21.006;2022-10-30T23:20:31;19.77;;;12.60;;
22223;SDS011;11281;52.194;21.006;2022-10-30T23:24:33;29.70;;;14.65;;
22223;SDS011;11281;52.194;21.006;2022-10-30T23:28:35;22.52;;;13.43;;
22223;SDS011;11281;52.194;21.006;2022-10-30T23:32:37;24.58;;;14.10;;
22223;SDS011;11281;52.194;21.006;2022-10-30T23:36:39;19.67;;;12.35;;
22223;SDS011;11281;52.194;21.006;2022-10-30T23:40:41;20.98;;;12.18;;
22223;SDS011;11281;52.194;21.006;2022-10-30T23:44:42;22.88;;;13.55;;
22223;SDS011;11281;52.194;21.006;2022-10-30T23:48:44;23.30;;;12.35;;
22223;SDS011;11281;52.194;21.006;2022-10-30T23:52:46;22.35;;;12.95;;
22223;SDS011;11281;52.194;21.006;2022-10-30T23:56:48;25.80;;;12.52;;
